Time,TemperatureF,DewpointF,PressureIn,WindDirection,WindDirectionDegrees,WindSpeedMPH,WindSpeedGustMPH,Humidity,HourlyPrecipIn,Conditions,Clouds,dailyrainin,SolarRadiationWatts/m^2,SoftwareType,DateUTC
2013-10-22 00:05:00,58.1,56.4,29.97,WSW,242,0.0,1.0,94,0.00,,,0.00,0,Wunderground v.1.15,2013-10-22 04:05:00,
2013-10-22 00:10:00,58.1,56.4,29.97,WSW,242,0.0,1.0,94,0.00,,,0.00,0,Wunderground v.1.15,2013-10-22 04:10:00,
2013-10-22 00:15:00,57.9,56.2,29.97,WSW,242,0.0,1.0,94,0.00,,,0.00,0,Wunderground v.1.15,2013-10-22 04:15:00,
2013-10-22 00:20:00,57.8,56.1,29.97,WSW,242,0.0,1.0,94,0.00,,,0.00,0,Wunderground v.1.15,2013-10-22 04:20:00,
2013-10-22 00:25:00,57.7,56.0,29.96,WSW,242,0.0,1.0,94,0.00,,,0.00,0,Wunderground v.1.15,2013-10-22 04:25:00,
2013-10-22 00:30:00,57.6,55.9,29.96,WSW,242,0.0,1.0,94,0.00,,,0.00,0,Wunderground v.1.15,2013-10-22 04:30:00,
2013-10-22 00:35:00,57.4,55.7,29.96,WSW,242,0.0,1.0,94,0.00,,,0.00,0,Wunderground v.1.15,2013-10-22 04:35:00,
2013-10-22 00:40:00,57.3,55.6,29.97,WSW,242,0.0,1.0,94,0.00,,,0.00,0,Wunderground v.1.15,2013-10-22 04:40:00,
2013-10-22 00:45:00,57.2,55.5,29.97,WSW,242,0.0,1.0,94,0.00,,,0.00,0,Wunderground v.1.15,2013-10-22 04:45:00,
2013-10-22 00:50:00,57.0,55.3,29.96,WSW,242,0.0,1.0,94,0.00,,,0.00,0,Wunderground v.1.15,2013-10-22 04:50:00,
2013-10-22 00:55:00,56.9,55.2,29.96,WSW,242,0.0,1.0,94,0.00,,,0.00,0,Wunderground v.1.15,2013-10-22 04:55:00,
2013-10-22 01:00:00,56.8,55.4,29.96,WSW,242,0.0,0.0,95,0.00,,,0.00,0,Wunderground v.1.15,2013-10-22 05:00:00,
2013-10-22 01:05:00,56.8,55.4,29.96,WSW,242,0.0,0.0,95,0.00,,,0.00,0,Wunderground v.1.15,2013-10-22 05:05:00,
2013-10-22 01:15:00,56.9,55.5,29.96,WSW,242,0.0,0.0,95,0.00,,,0.00,0,Wunderground v.1.15,2013-10-22 05:15:00,
2013-10-22 01:20:00,56.9,55.5,29.96,WSW,242,0.0,0.0,95,0.00,,,0.00,0,Wunderground v.1.15,2013-10-22 05:20:00,
2013-10-22 01:25:00,56.9,55.5,29.96,WSW,242,0.0,0.0,95,0.00,,,0.00,0,Wunderground v.1.15,2013-10-22 05:25:00,
2013-10-22 01:30:00,56.9,55.5,29.96,WSW,242,0.0,0.0,95,0.00,,,0.00,0,Wunderground v.1.15,2013-10-22 05:30:00,
2013-10-22 01:40:00,56.8,55.4,29.96,WSW,242,0.0,0.0,95,0.00,,,0.00,0,Wunderground v.1.15,2013-10-22 05:40:00,
2013-10-22 01:45:00,56.6,55.2,29.96,WSW,242,0.0,0.0,95,0.00,,,0.00,0,Wunderground v.1.15,2013-10-22 05:45:00,
2013-10-22 01:50:00,56.5,55.1,29.96,WSW,242,0.0,0.0,95,0.00,,,0.00,0,Wunderground v.1.15,2013-10-22 05:50:00,
2013-10-22 01:55:00,56.5,55.1,29.96,WSW,242,0.0,0.0,95,0.00,,,0.00,0,Wunderground v.1.15,2013-10-22 05:55:00,
2013-10-22 02:00:00,56.4,55.0,29.96,WSW,242,0.0,0.0,95,0.00,,,0.00,0,Wunderground v.1.15,2013-10-22 06:00:00,
2013-10-22 02:10:00,56.3,54.9,29.96,WSW,242,0.0,0.0,95,0.00,,,0.00,0,Wunderground v.1.15,2013-10-22 06:10:00,
2013-10-22 02:15:00,56.2,54.8,29.96,WSW,242,0.0,0.0,95,0.00,,,0.00,0,Wunderground v.1.15,2013-10-22 06:15:00,
2013-10-22 02:20:00,56.1,54.7,29.97,WSW,242,0.0,0.0,95,0.00,,,0.00,0,Wunderground v.1.15,2013-10-22 06:20:00,
2013-10-22 02:25:00,56.1,54.7,29.96,WSW,242,0.0,0.0,95,0.00,,,0.00,0,Wunderground v.1.15,2013-10-22 06:25:00,
2013-10-22 02:30:00,56.1,54.7,29.96,WSW,242,0.0,0.0,95,0.00,,,0.00,0,Wunderground v.1.15,2013-10-22 06:30:00,
2013-10-22 02:40:00,56.1,54.7,29.96,WSW,242,0.0,0.0,95,0.00,,,0.00,0,Wunderground v.1.15,2013-10-22 06:40:00,
2013-10-22 02:45:00,56.2,54.8,29.96,WSW,242,0.0,0.0,95,0.00,,,0.00,0,Wunderground v.1.15,2013-10-22 06:45:00,
2013-10-22 02:50:00,56.1,54.7,29.96,WSW,242,0.0,0.0,95,0.00,,,0.00,0,Wunderground v.1.15,2013-10-22 06:50:00,
2013-10-22 02:55:00,56.1,54.7,29.96,WSW,242,0.0,0.0,95,0.00,,,0.00,0,Wunderground v.1.15,2013-10-22 06:55:00,
2013-10-22 03:00:00,56.0,54.6,29.97,WSW,242,0.0,0.0,95,0.00,,,0.00,0,Wunderground v.1.15,2013-10-22 07:00:00,
2013-10-22 03:10:00,56.0,54.6,29.97,WSW,244,0.0,0.0,95,0.00,,,0.00,0,Wunderground v.1.15,2013-10-22 07:10:00,
2013-10-22 03:15:00,56.1,54.7,29.97,WSW,244,0.0,0.0,95,0.00,,,0.00,0,Wunderground v.1.15,2013-10-22 07:15:00,
2013-10-22 03:20:00,56.1,54.7,29.97,WSW,244,0.0,0.0,95,0.00,,,0.00,0,Wunderground v.1.15,2013-10-22 07:20:00,
2013-10-22 03:25:00,56.1,54.7,29.96,WSW,244,0.0,0.0,95,0.00,,,0.00,0,Wunderground v.1.15,2013-10-22 07:25:00,
2013-10-22 03:30:00,56.1,54.7,29.96,WSW,244,0.0,0.0,95,0.00,,,0.00,0,Wunderground v.1.15,2013-10-22 07:30:00,
2013-10-22 03:40:00,56.1,54.7,29.96,NW,304,0.0,0.0,95,0.00,,,0.00,0,Wunderground v.1.15,2013-10-22 07:40:00,
2013-10-22 03:45:00,56.1,54.7,29.97,NW,304,0.0,0.0,95,0.00,,,0.00,0,Wunderground v.1.15,2013-10-22 07:45:00,
2013-10-22 03:50:00,56.1,54.7,29.96,NW,304,0.0,0.0,95,0.00,,,0.00,0,Wunderground v.1.15,2013-10-22 07:50:00,
2013-10-22 03:55:00,56.1,54.7,29.96,NW,304,0.0,0.0,95,0.00,,,0.00,0,Wunderground v.1.15,2013-10-22 07:55:00,
2013-10-22 04:00:00,56.0,54.6,29.96,NW,304,0.0,0.0,95,0.00,,,0.00,0,Wunderground v.1.15,2013-10-22 08:00:00,
2013-10-22 04:05:00,56.0,54.6,29.96,NW,304,0.0,0.0,95,0.00,,,0.00,0,Wunderground v.1.15,2013-10-22 08:05:00,
2013-10-22 04:10:00,55.9,54.5,29.96,NW,304,0.0,0.0,95,0.00,,,0.00,0,Wunderground v.1.15,2013-10-22 08:10:00,
2013-10-22 04:15:00,55.8,54.4,29.96,NW,304,0.0,0.0,95,0.00,,,0.00,0,Wunderground v.1.15,2013-10-22 08:15:00,
2013-10-22 04:20:00,55.7,54.3,29.97,NW,304,0.0,0.0,95,0.00,,,0.00,0,Wunderground v.1.15,2013-10-22 08:20:00,
2013-10-22 04:25:00,55.7,54.3,29.96,NW,304,0.0,0.0,95,0.00,,,0.00,0,Wunderground v.1.15,2013-10-22 08:25:00,
2013-10-22 04:30:00,55.6,54.2,29.96,NW,305,0.0,0.0,95,0.00,,,0.00,0,Wunderground v.1.15,2013-10-22 08:30:00,
2013-10-22 04:40:00,55.6,54.2,29.96,NW,304,0.0,0.0,95,0.00,,,0.00,0,Wunderground v.1.15,2013-10-22 08:40:00,
2013-10-22 04:45:00,55.6,54.2,29.96,NW,304,0.0,0.0,95,0.00,,,0.00,0,Wunderground v.1.15,2013-10-22 08:45:00,
2013-10-22 04:50:00,55.6,54.2,29.97,NW,305,0.0,0.0,95,0.00,,,0.00,0,Wunderground v.1.15,2013-10-22 08:50:00,
2013-10-22 04:55:00,55.6,54.2,29.97,NW,305,0.0,0.0,95,0.00,,,0.00,0,Wunderground v.1.15,2013-10-22 08:55:00,
2013-10-22 05:00:00,55.6,54.2,29.97,NW,304,0.0,0.0,95,0.00,,,0.00,0,Wunderground v.1.15,2013-10-22 09:00:00,
2013-10-22 05:05:00,55.7,54.3,29.96,NW,305,0.0,0.0,95,0.00,,,0.00,0,Wunderground v.1.15,2013-10-22 09:05:00,
2013-10-22 05:10:00,55.7,54.3,29.96,NW,304,0.0,0.0,95,0.00,,,0.00,0,Wunderground v.1.15,2013-10-22 09:10:00,
2013-10-22 05:20:00,55.8,54.4,29.97,NW,304,0.0,0.0,95,0.00,,,0.00,0,Wunderground v.1.15,2013-10-22 09:20:00,
2013-10-22 05:25:00,55.8,54.4,29.96,NW,305,0.0,1.0,95,0.00,,,0.00,0,Wunderground v.1.15,2013-10-22 09:25:00,
2013-10-22 05:30:00,55.8,54.4,29.96,NW,305,0.0,0.0,95,0.00,,,0.00,0,Wunderground v.1.15,2013-10-22 09:30:00,
2013-10-22 05:35:00,55.9,54.5,29.96,NW,312,1.0,1.0,95,0.00,,,0.00,0,Wunderground v.1.15,2013-10-22 09:35:00,
2013-10-22 05:45:00,56.0,54.6,29.97,NW,318,0.0,1.0,95,0.00,,,0.00,0,Wunderground v.1.15,2013-10-22 09:45:00,
2013-10-22 05:50:00,56.0,54.6,29.97,NW,318,0.0,0.0,95,0.00,,,0.00,0,Wunderground v.1.15,2013-10-22 09:50:00,
2013-10-22 05:55:00,56.0,54.6,29.97,NW,318,0.0,0.0,95,0.00,,,0.00,0,Wunderground v.1.15,2013-10-22 09:55:00,
2013-10-22 06:00:00,56.0,54.6,29.97,NNE,33,0.0,0.0,95,0.00,,,0.00,0,Wunderground v.1.15,2013-10-22 10:00:00,
2013-10-22 06:05:00,56.0,54.6,29.97,NNE,26,0.0,0.0,95,0.00,,,0.00,0,Wunderground v.1.15,2013-10-22 10:05:00,
2013-10-22 06:10:00,56.0,54.3,29.97,NNW,336,0.0,0.0,94,0.00,,,0.00,0,Wunderground v.1.15,2013-10-22 10:10:00,
2013-10-22 06:20:00,56.0,54.3,29.98,NNW,330,0.0,0.0,94,0.00,,,0.00,0,Wunderground v.1.15,2013-10-22 10:20:00,
2013-10-22 06:30:00,56.1,54.4,29.97,NNE,19,0.0,0.0,94,0.00,,,0.00,0,Wunderground v.1.15,2013-10-22 10:30:00,
2013-10-22 06:35:00,56.0,54.3,29.97,NNE,31,0.0,0.0,94,0.00,,,0.00,0,Wunderground v.1.15,2013-10-22 10:35:00,
2013-10-22 06:40:00,56.1,54.4,29.98,NNE,31,0.0,0.0,94,0.00,,,0.00,0,Wunderground v.1.15,2013-10-22 10:40:00,
2013-10-22 06:45:00,56.1,54.4,29.98,NE,46,0.0,1.0,94,0.00,,,0.00,0,Wunderground v.1.15,2013-10-22 10:45:00,
2013-10-22 06:50:00,56.1,54.4,29.99,WNW,298,0.0,1.0,94,0.00,,,0.00,0,Wunderground v.1.15,2013-10-22 10:50:00,
2013-10-22 06:55:00,56.1,54.4,29.99,NW,321,0.0,1.0,94,0.00,,,0.00,0,Wunderground v.1.15,2013-10-22 10:55:00,
2013-10-22 07:00:00,56.2,54.5,29.99,NW,322,0.0,0.0,94,0.00,,,0.00,0,Wunderground v.1.15,2013-10-22 11:00:00,
2013-10-22 07:10:00,56.2,54.5,29.99,NE,45,0.0,3.0,94,0.00,,,0.00,0,Wunderground v.1.15,2013-10-22 11:10:00,
2013-10-22 07:15:00,56.2,54.2,29.99,NE,45,0.0,3.0,93,0.00,,,0.00,0,Wunderground v.1.15,2013-10-22 11:15:00,
2013-10-22 07:25:00,56.2,54.2,30.00,NE,46,0.0,3.0,93,0.00,,,0.00,0,Wunderground v.1.15,2013-10-22 11:25:00,
2013-10-22 07:30:00,56.3,54.3,30.00,West,274,0.0,3.0,93,0.00,,,0.00,0,Wunderground v.1.15,2013-10-22 11:30:00,
2013-10-22 07:40:00,56.4,54.4,30.00,West,281,0.0,3.0,93,0.00,,,0.00,0,Wunderground v.1.15,2013-10-22 11:40:00,
2013-10-22 07:45:00,56.4,54.4,30.00,WNW,288,0.0,3.0,93,0.00,,,0.00,0,Wunderground v.1.15,2013-10-22 11:45:00,
2013-10-22 07:50:00,56.4,54.4,30.00,WNW,288,0.0,3.0,93,0.00,,,0.00,0,Wunderground v.1.15,2013-10-22 11:50:00,
2013-10-22 07:55:00,56.4,54.4,29.99,WNW,301,0.0,3.0,93,0.00,,,0.00,0,Wunderground v.1.15,2013-10-22 11:55:00,
2013-10-22 08:00:00,56.4,54.4,29.99,ENE,71,0.0,3.0,93,0.00,,,0.00,0,Wunderground v.1.15,2013-10-22 12:00:00,
2013-10-22 08:05:00,56.4,54.4,30.00,WNW,300,0.0,3.0,93,0.00,,,0.00,0,Wunderground v.1.15,2013-10-22 12:05:00,
2013-10-22 08:10:00,56.4,54.4,29.99,NNE,23,0.0,3.0,93,0.00,,,0.00,0,Wunderground v.1.15,2013-10-22 12:10:00,
2013-10-22 08:15:00,56.4,54.4,29.99,NNE,23,0.0,3.0,93,0.00,,,0.00,0,Wunderground v.1.15,2013-10-22 12:15:00,
2013-10-22 08:25:00,56.5,54.5,30.00,NNE,23,0.0,3.0,93,0.00,,,0.00,0,Wunderground v.1.15,2013-10-22 12:25:00,
2013-10-22 08:30:00,56.6,54.6,30.00,NNW,329,0.0,3.0,93,0.00,,,0.00,0,Wunderground v.1.15,2013-10-22 12:30:00,
2013-10-22 08:40:00,56.6,54.9,30.00,NNW,329,0.0,3.0,94,0.00,,,0.00,5,Wunderground v.1.15,2013-10-22 12:40:00,
2013-10-22 08:45:00,56.6,54.9,30.01,NNW,327,0.0,3.0,94,0.00,,,0.00,5,Wunderground v.1.15,2013-10-22 12:45:00,
2013-10-22 08:50:00,56.6,54.9,30.01,NNW,327,0.0,3.0,94,0.00,,,0.00,7,Wunderground v.1.15,2013-10-22 12:50:00,
2013-10-22 08:55:00,56.7,55.0,30.01,NNW,327,0.0,3.0,94,0.00,,,0.00,5,Wunderground v.1.15,2013-10-22 12:55:00,
2013-10-22 09:00:00,56.7,55.0,30.01,NNW,330,0.0,3.0,94,0.00,,,0.00,5,Wunderground v.1.15,2013-10-22 13:00:00,
2013-10-22 09:10:00,56.8,55.1,30.01,NE,36,0.0,3.0,94,0.00,,,0.00,19,Wunderground v.1.15,2013-10-22 13:10:00,
2013-10-22 09:15:00,56.8,55.1,30.01,NE,36,0.0,3.0,94,0.00,,,0.00,32,Wunderground v.1.15,2013-10-22 13:15:00,
2013-10-22 09:20:00,56.9,55.2,30.01,NNW,336,0.0,3.0,94,0.00,,,0.00,25,Wunderground v.1.15,2013-10-22 13:20:00,
2013-10-22 09:30:00,57.0,55.0,30.02,NE,38,0.0,3.0,93,0.00,,,0.00,35,Wunderground v.1.15,2013-10-22 13:30:00,
2013-10-22 09:35:00,57.1,55.1,30.01,NNW,342,0.0,3.0,93,0.00,,,0.00,49,Wunderground v.1.15,2013-10-22 13:35:00,
2013-10-22 09:45:00,57.2,55.2,30.02,NNW,340,0.0,3.0,93,0.00,,,0.00,51,Wunderground v.1.15,2013-10-22 13:45:00,
2013-10-22 09:50:00,57.4,55.4,30.02,NNW,336,0.0,3.0,93,0.00,,,0.00,46,Wunderground v.1.15,2013-10-22 13:50:00,
2013-10-22 09:55:00,57.5,55.2,30.02,NW,314,0.0,3.0,92,0.00,,,0.00,72,Wunderground v.1.15,2013-10-22 13:55:00,
2013-10-22 10:00:00,57.5,55.2,30.02,NNW,340,1.0,1.0,92,0.00,,,0.00,67,Wunderground v.1.15,2013-10-22 14:00:00,
2013-10-22 10:05:00,57.6,55.3,30.02,NNW,340,0.0,3.0,92,0.00,,,0.00,76,Wunderground v.1.15,2013-10-22 14:05:00,
2013-10-22 10:15:00,57.9,55.6,30.02,NW,316,0.0,3.0,92,0.00,,,0.00,84,Wunderground v.1.15,2013-10-22 14:15:00,
2013-10-22 10:20:00,57.9,55.3,30.03,NE,46,0.0,3.0,91,0.00,,,0.00,97,Wunderground v.1.15,2013-10-22 14:20:00,
2013-10-22 10:30:00,58.0,55.4,30.02,West,273,0.0,3.0,91,0.00,,,0.00,135,Wunderground v.1.15,2013-10-22 14:30:00,
2013-10-22 10:35:00,58.2,55.6,30.02,NNW,331,0.0,3.0,91,0.00,,,0.00,137,Wunderground v.1.15,2013-10-22 14:35:00,
2013-10-22 10:40:00,58.5,55.9,30.02,NNW,331,0.0,3.0,91,0.00,,,0.00,158,Wunderground v.1.15,2013-10-22 14:40:00,
2013-10-22 10:50:00,59.0,55.8,30.02,ESE,123,0.0,3.0,89,0.00,,,0.00,156,Wunderground v.1.15,2013-10-22 14:50:00,
2013-10-22 11:00:00,59.3,55.7,30.02,NW,306,0.0,3.0,88,0.00,,,0.00,111,Wunderground v.1.15,2013-10-22 15:00:00,
2013-10-22 11:05:00,59.4,55.8,30.02,NW,309,0.0,3.0,88,0.00,,,0.00,158,Wunderground v.1.15,2013-10-22 15:05:00,
2013-10-22 11:10:00,59.9,56.0,30.02,NNW,342,1.0,1.0,87,0.00,,,0.00,206,Wunderground v.1.15,2013-10-22 15:10:00,
2013-10-22 11:20:00,60.9,56.7,30.02,West,261,0.0,3.0,86,0.00,,,0.00,267,Wunderground v.1.15,2013-10-22 15:20:00,
2013-10-22 11:25:00,61.4,56.8,30.02,NW,307,0.0,3.0,85,0.00,,,0.00,169,Wunderground v.1.15,2013-10-22 15:25:00,
2013-10-22 11:35:00,61.9,56.7,30.03,SW,216,1.0,3.0,83,0.00,,,0.00,471,Wunderground v.1.15,2013-10-22 15:35:00,
2013-10-22 11:40:00,62.5,56.6,30.03,SSW,194,0.0,3.0,81,0.00,,,0.00,555,Wunderground v.1.15,2013-10-22 15:40:00,
2013-10-22 11:45:00,62.5,56.9,30.03,NW,325,0.0,3.0,82,0.00,,,0.00,237,Wunderground v.1.15,2013-10-22 15:45:00,
2013-10-22 11:55:00,62.5,56.9,30.03,WNW,290,1.0,3.0,82,0.00,,,0.00,251,Wunderground v.1.15,2013-10-22 15:55:00,
2013-10-22 12:05:00,62.5,56.2,30.03,North,5,0.0,3.0,80,0.00,,,0.00,211,Wunderground v.1.15,2013-10-22 16:05:00,
2013-10-22 12:10:00,62.8,57.2,30.03,NW,311,0.0,3.0,82,0.00,,,0.00,188,Wunderground v.1.15,2013-10-22 16:10:00,
2013-10-22 12:15:00,63.0,57.1,30.03,WSW,250,0.0,3.0,81,0.00,,,0.00,151,Wunderground v.1.15,2013-10-22 16:15:00,
2013-10-22 12:25:00,62.3,56.4,30.03,WNW,303,0.0,3.0,81,0.00,,,0.00,200,Wunderground v.1.15,2013-10-22 16:25:00,
2013-10-22 12:30:00,62.2,56.6,30.03,NW,320,0.0,3.0,82,0.00,,,0.00,172,Wunderground v.1.15,2013-10-22 16:30:00,
2013-10-22 12:40:00,62.2,56.6,30.03,WNW,300,0.0,3.0,82,0.00,,,0.00,193,Wunderground v.1.15,2013-10-22 16:40:00,
2013-10-22 12:45:00,62.1,56.2,30.03,SW,233,0.0,3.0,81,0.00,,,0.00,186,Wunderground v.1.15,2013-10-22 16:45:00,
2013-10-22 12:55:00,62.0,56.8,30.03,WNW,296,0.0,3.0,83,0.00,,,0.00,244,Wunderground v.1.15,2013-10-22 16:55:00,
2013-10-22 13:00:00,62.0,56.8,30.02,WSW,240,0.0,1.0,83,0.00,,,0.00,276,Wunderground v.1.15,2013-10-22 17:00:00,
2013-10-22 13:10:00,62.2,57.0,30.02,NW,313,0.0,6.0,83,0.00,,,0.00,271,Wunderground v.1.15,2013-10-22 17:10:00,
2013-10-22 13:15:00,62.2,56.6,30.02,North,9,0.0,6.0,82,0.00,,,0.00,302,Wunderground v.1.15,2013-10-22 17:15:00,
2013-10-22 13:20:00,62.5,56.9,30.02,West,261,0.0,6.0,82,0.00,,,0.00,341,Wunderground v.1.15,2013-10-22 17:20:00,
2013-10-22 13:30:00,63.8,57.5,30.01,NW,306,0.0,6.0,80,0.00,,,0.00,689,Wunderground v.1.15,2013-10-22 17:30:00,
2013-10-22 13:35:00,64.6,57.6,30.01,WNW,288,0.0,6.0,78,0.00,,,0.00,717,Wunderground v.1.15,2013-10-22 17:35:00,
2013-10-22 13:40:00,65.2,57.8,30.00,North,360,0.0,6.0,77,0.00,,,0.00,691,Wunderground v.1.15,2013-10-22 17:40:00,
2013-10-22 13:45:00,65.6,57.8,30.00,NW,321,1.0,6.0,76,0.00,,,0.00,700,Wunderground v.1.15,2013-10-22 17:45:00,
2013-10-22 13:50:00,66.1,58.3,30.00,NE,34,0.0,6.0,76,0.00,,,0.00,710,Wunderground v.1.15,2013-10-22 17:50:00,
2013-10-22 14:00:00,67.1,58.2,30.00,SW,222,1.0,6.0,73,0.00,,,0.00,693,Wunderground v.1.15,2013-10-22 18:00:00,
2013-10-22 14:10:00,66.6,58.8,29.99,WNW,302,1.0,6.0,76,0.00,,,0.00,714,Wunderground v.1.15,2013-10-22 18:10:00,
2013-10-22 14:15:00,67.9,59.7,29.99,NW,306,1.0,6.0,75,0.00,,,0.00,701,Wunderground v.1.15,2013-10-22 18:15:00,
2013-10-22 14:20:00,68.7,58.9,29.99,NW,304,0.0,6.0,71,0.00,,,0.00,700,Wunderground v.1.15,2013-10-22 18:20:00,
2013-10-22 14:25:00,69.0,58.4,29.99,West,261,1.0,6.0,69,0.00,,,0.00,717,Wunderground v.1.15,2013-10-22 18:25:00,
2013-10-22 14:35:00,69.1,58.5,29.98,WNW,300,0.0,6.0,69,0.00,,,0.00,694,Wunderground v.1.15,2013-10-22 18:35:00,
2013-10-22 14:40:00,69.4,57.5,29.98,SSE,167,0.0,6.0,66,0.00,,,0.00,712,Wunderground v.1.15,2013-10-22 18:40:00,
2013-10-22 14:45:00,69.7,58.3,29.98,WNW,292,1.0,6.0,67,0.00,,,0.00,722,Wunderground v.1.15,2013-10-22 18:45:00,
2013-10-22 14:55:00,70.4,58.5,29.97,WNW,296,0.0,6.0,66,0.00,,,0.00,775,Wunderground v.1.15,2013-10-22 18:55:00,
2013-10-22 15:05:00,71.3,57.6,29.96,NNW,344,0.0,6.0,62,0.00,,,0.00,671,Wunderground v.1.15,2013-10-22 19:05:00,
2013-10-22 15:10:00,71.2,57.1,29.96,SW,215,0.0,6.0,61,0.00,,,0.00,668,Wunderground v.1.15,2013-10-22 19:10:00,
2013-10-22 15:15:00,70.3,56.7,29.96,West,279,1.0,6.0,62,0.00,,,0.00,656,Wunderground v.1.15,2013-10-22 19:15:00,
2013-10-22 15:20:00,70.1,56.5,29.96,SSW,193,1.0,1.0,62,0.00,,,0.00,659,Wunderground v.1.15,2013-10-22 19:20:00,
2013-10-22 15:25:00,70.2,55.2,29.96,South,186,1.0,6.0,59,0.00,,,0.00,649,Wunderground v.1.15,2013-10-22 19:25:00,
2013-10-22 15:30:00,70.7,56.6,29.96,West,274,1.0,1.0,61,0.00,,,0.00,640,Wunderground v.1.15,2013-10-22 19:30:00,
2013-10-22 15:35:00,70.9,55.9,29.96,WSW,244,1.0,6.0,59,0.00,,,0.00,636,Wunderground v.1.15,2013-10-22 19:35:00,
2013-10-22 15:45:00,71.1,57.0,29.96,NW,306,1.0,6.0,61,0.00,,,0.00,608,Wunderground v.1.15,2013-10-22 19:45:00,
2013-10-22 15:50:00,71.5,56.9,29.96,WNW,299,0.0,6.0,60,0.00,,,0.00,594,Wunderground v.1.15,2013-10-22 19:50:00,
2013-10-22 15:55:00,71.4,55.4,29.96,NNE,31,1.0,6.0,57,0.00,,,0.00,582,Wunderground v.1.15,2013-10-22 19:55:00,
2013-10-22 16:00:00,71.5,56.4,29.96,NW,315,1.0,1.0,59,0.00,,,0.00,573,Wunderground v.1.15,2013-10-22 20:00:00,
2013-10-22 16:05:00,71.7,55.7,29.96,West,269,0.0,6.0,57,0.00,,,0.00,557,Wunderground v.1.15,2013-10-22 20:05:00,
2013-10-22 16:15:00,71.3,55.3,29.95,West,263,1.0,6.0,57,0.00,,,0.00,538,Wunderground v.1.15,2013-10-22 20:15:00,
2013-10-22 16:20:00,71.5,55.0,29.95,West,280,1.0,6.0,56,0.00,,,0.00,526,Wunderground v.1.15,2013-10-22 20:20:00,
2013-10-22 16:25:00,71.8,55.7,29.95,WNW,287,0.0,6.0,57,0.00,,,0.00,510,Wunderground v.1.15,2013-10-22 20:25:00,
2013-10-22 16:30:00,72.1,56.0,29.96,West,271,0.0,6.0,57,0.00,,,0.00,497,Wunderground v.1.15,2013-10-22 20:30:00,
2013-10-22 16:35:00,72.3,55.7,29.96,WNW,283,0.0,6.0,56,0.00,,,0.00,483,Wunderground v.1.15,2013-10-22 20:35:00,
2013-10-22 16:45:00,72.2,55.1,29.96,WSW,254,1.0,6.0,55,0.00,,,0.00,457,Wunderground v.1.15,2013-10-22 20:45:00,
2013-10-22 16:50:00,72.1,55.5,29.96,WNW,296,0.0,6.0,56,0.00,,,0.00,445,Wunderground v.1.15,2013-10-22 20:50:00,
2013-10-22 16:55:00,72.0,53.9,29.96,SE,139,0.0,6.0,53,0.00,,,0.00,429,Wunderground v.1.15,2013-10-22 20:55:00,
2013-10-22 17:00:00,71.6,54.1,29.95,WNW,294,1.0,1.0,54,0.00,,,0.00,417,Wunderground v.1.15,2013-10-22 21:00:00,
2013-10-22 17:05:00,71.9,54.9,29.95,WNW,298,0.0,6.0,55,0.00,,,0.00,399,Wunderground v.1.15,2013-10-22 21:05:00,
2013-10-22 17:15:00,71.8,52.7,29.95,NNW,342,1.0,6.0,51,0.00,,,0.00,371,Wunderground v.1.15,2013-10-22 21:15:00,
2013-10-22 17:20:00,71.3,52.2,29.95,WSW,242,1.0,1.0,51,0.00,,,0.00,345,Wunderground v.1.15,2013-10-22 21:20:00,
2013-10-22 17:25:00,71.1,52.0,29.95,WSW,250,0.0,6.0,51,0.00,,,0.00,53,Wunderground v.1.15,2013-10-22 21:25:00,
2013-10-22 17:30:00,70.7,52.2,29.95,WNW,283,1.0,6.0,52,0.00,,,0.00,53,Wunderground v.1.15,2013-10-22 21:30:00,
2013-10-22 17:35:00,70.3,51.3,29.95,West,265,1.0,6.0,51,0.00,,,0.00,42,Wunderground v.1.15,2013-10-22 21:35:00,
2013-10-22 17:40:00,69.9,50.4,29.95,WNW,296,1.0,6.0,50,0.00,,,0.00,42,Wunderground v.1.15,2013-10-22 21:40:00,
2013-10-22 17:50:00,69.5,52.6,29.95,WNW,288,0.0,6.0,55,0.00,,,0.00,32,Wunderground v.1.15,2013-10-22 21:50:00,
2013-10-22 17:55:00,69.2,53.3,29.95,NW,323,0.0,6.0,57,0.00,,,0.00,32,Wunderground v.1.15,2013-10-22 21:55:00,
2013-10-22 18:00:00,68.9,54.4,29.95,WNW,301,0.0,6.0,60,0.00,,,0.00,30,Wunderground v.1.15,2013-10-22 22:00:00,
2013-10-22 18:05:00,68.8,52.0,29.95,WSW,245,0.0,6.0,55,0.00,,,0.00,72,Wunderground v.1.15,2013-10-22 22:05:00,
2013-10-22 18:10:00,69.0,52.6,29.95,WNW,296,0.0,6.0,56,0.00,,,0.00,172,Wunderground v.1.15,2013-10-22 22:10:00,
2013-10-22 18:20:00,69.1,53.2,29.95,WNW,298,0.0,6.0,57,0.00,,,0.00,135,Wunderground v.1.15,2013-10-22 22:20:00,
2013-10-22 18:25:00,68.8,54.8,29.94,WNW,298,0.0,6.0,61,0.00,,,0.00,53,Wunderground v.1.15,2013-10-22 22:25:00,
2013-10-22 18:30:00,67.9,55.3,29.94,WNW,298,0.0,6.0,64,0.00,,,0.00,25,Wunderground v.1.15,2013-10-22 22:30:00,
2013-10-22 18:35:00,67.3,55.1,29.94,WNW,298,0.0,6.0,65,0.00,,,0.00,21,Wunderground v.1.15,2013-10-22 22:35:00,
2013-10-22 18:40:00,66.8,53.4,29.94,WNW,298,0.0,6.0,62,0.00,,,0.00,19,Wunderground v.1.15,2013-10-22 22:40:00,
2013-10-22 18:50:00,66.2,53.2,29.94,WNW,298,0.0,6.0,63,0.00,,,0.00,30,Wunderground v.1.15,2013-10-22 22:50:00,
2013-10-22 18:55:00,65.9,53.8,29.94,WNW,298,0.0,6.0,65,0.00,,,0.00,14,Wunderground v.1.15,2013-10-22 22:55:00,
2013-10-22 19:00:00,65.6,54.3,29.94,WNW,298,0.0,0.0,67,0.00,,,0.00,12,Wunderground v.1.15,2013-10-22 23:00:00,
2013-10-22 19:10:00,65.0,55.8,29.94,WNW,298,0.0,4.0,72,0.00,,,0.00,9,Wunderground v.1.15,2013-10-22 23:10:00,
2013-10-22 19:20:00,64.1,56.4,29.94,WNW,298,0.0,4.0,76,0.00,,,0.00,5,Wunderground v.1.15,2013-10-22 23:20:00,
2013-10-22 19:25:00,63.8,56.1,29.94,WNW,298,0.0,4.0,76,0.00,,,0.00,0,Wunderground v.1.15,2013-10-22 23:25:00,
2013-10-22 19:30:00,63.5,55.8,29.94,WNW,298,0.0,4.0,76,0.00,,,0.00,0,Wunderground v.1.15,2013-10-22 23:30:00,
2013-10-22 19:35:00,63.3,55.2,29.94,WNW,298,0.0,4.0,75,0.00,,,0.00,0,Wunderground v.1.15,2013-10-22 23:35:00,
2013-10-22 19:40:00,63.0,55.3,29.94,WNW,298,0.0,4.0,76,0.00,,,0.00,0,Wunderground v.1.15,2013-10-22 23:40:00,
2013-10-22 19:45:00,62.7,55.4,29.94,WNW,298,0.0,4.0,77,0.00,,,0.00,0,Wunderground v.1.15,2013-10-22 23:45:00,
2013-10-22 19:55:00,61.9,55.0,29.94,WNW,298,0.0,4.0,78,0.00,,,0.00,0,Wunderground v.1.15,2013-10-22 23:55:00,
2013-10-22 20:00:00,61.5,55.3,29.94,WNW,298,0.0,4.0,80,0.00,,,0.00,0,Wunderground v.1.15,2013-10-23 00:00:00,
2013-10-22 20:05:00,61.0,54.8,29.94,WNW,298,0.0,4.0,80,0.00,,,0.00,0,Wunderground v.1.15,2013-10-23 00:05:00,
2013-10-22 20:10:00,60.5,55.0,29.94,WNW,298,0.0,4.0,82,0.00,,,0.00,0,Wunderground v.1.15,2013-10-23 00:10:00,
2013-10-22 20:15:00,60.1,55.2,29.95,WNW,298,0.0,4.0,84,0.00,,,0.00,0,Wunderground v.1.15,2013-10-23 00:15:00,
2013-10-22 20:25:00,59.4,54.9,29.95,WNW,298,0.0,4.0,85,0.00,,,0.00,0,Wunderground v.1.15,2013-10-23 00:25:00,
2013-10-22 20:35:00,58.9,54.4,29.95,WNW,298,0.0,4.0,85,0.00,,,0.00,0,Wunderground v.1.15,2013-10-23 00:35:00,
2013-10-22 20:40:00,58.7,54.5,29.95,WNW,298,0.0,4.0,86,0.00,,,0.00,0,Wunderground v.1.15,2013-10-23 00:40:00,
2013-10-22 20:45:00,58.5,54.0,29.95,WNW,298,0.0,4.0,85,0.00,,,0.00,0,Wunderground v.1.15,2013-10-23 00:45:00,
2013-10-22 20:55:00,58.2,53.7,29.95,WNW,298,0.0,4.0,85,0.00,,,0.00,0,Wunderground v.1.15,2013-10-23 00:55:00,
2013-10-22 21:00:00,58.1,54.2,29.96,WNW,298,0.0,4.0,87,0.00,,,0.00,0,Wunderground v.1.15,2013-10-23 01:00:00,
2013-10-22 21:05:00,57.9,54.4,29.96,WNW,298,0.0,4.0,88,0.00,,,0.00,0,Wunderground v.1.15,2013-10-23 01:05:00,
2013-10-22 21:10:00,57.7,54.2,29.96,WNW,298,0.0,4.0,88,0.00,,,0.00,0,Wunderground v.1.15,2013-10-23 01:10:00,
2013-10-22 21:15:00,57.5,54.3,29.97,WNW,298,0.0,4.0,89,0.00,,,0.00,0,Wunderground v.1.15,2013-10-23 01:15:00,
2013-10-22 21:20:00,57.3,54.1,29.97,WNW,298,0.0,4.0,89,0.00,,,0.00,0,Wunderground v.1.15,2013-10-23 01:20:00,
2013-10-22 21:30:00,56.8,53.9,29.98,WNW,298,0.0,4.0,90,0.00,,,0.00,0,Wunderground v.1.15,2013-10-23 01:30:00,
2013-10-22 21:35:00,56.6,53.7,29.98,WNW,298,0.0,4.0,90,0.00,,,0.00,0,Wunderground v.1.15,2013-10-23 01:35:00,
2013-10-22 21:40:00,56.4,53.5,29.98,WNW,298,0.0,4.0,90,0.00,,,0.00,0,Wunderground v.1.15,2013-10-23 01:40:00,
2013-10-22 21:45:00,56.3,53.7,29.98,WNW,298,0.0,4.0,91,0.00,,,0.00,0,Wunderground v.1.15,2013-10-23 01:45:00,
2013-10-22 21:50:00,56.2,53.3,29.98,WNW,298,0.0,4.0,90,0.00,,,0.00,0,Wunderground v.1.15,2013-10-23 01:50:00,
2013-10-22 22:00:00,56.0,53.4,29.98,WNW,298,0.0,4.0,91,0.00,,,0.00,0,Wunderground v.1.15,2013-10-23 02:00:00,
2013-10-22 22:05:00,56.0,53.4,29.98,WNW,298,0.0,4.0,91,0.00,,,0.00,0,Wunderground v.1.15,2013-10-23 02:05:00,
2013-10-22 22:10:00,56.0,53.4,29.98,WNW,298,0.0,4.0,91,0.00,,,0.00,0,Wunderground v.1.15,2013-10-23 02:10:00,
2013-10-22 22:15:00,55.9,53.3,29.98,WNW,298,0.0,4.0,91,0.00,,,0.00,0,Wunderground v.1.15,2013-10-23 02:15:00,
2013-10-22 22:20:00,55.8,53.2,29.98,WNW,298,0.0,4.0,91,0.00,,,0.00,0,Wunderground v.1.15,2013-10-23 02:20:00,
2013-10-22 22:30:00,55.7,53.4,29.98,WNW,298,0.0,4.0,92,0.00,,,0.00,0,Wunderground v.1.15,2013-10-23 02:30:00,
2013-10-22 22:35:00,55.6,53.0,29.98,WNW,298,0.0,4.0,91,0.00,,,0.00,0,Wunderground v.1.15,2013-10-23 02:35:00,
2013-10-22 22:40:00,55.5,52.9,29.98,WNW,298,0.0,4.0,91,0.00,,,0.00,0,Wunderground v.1.15,2013-10-23 02:40:00,
2013-10-22 22:45:00,55.4,52.8,29.98,WNW,298,0.0,4.0,91,0.00,,,0.00,0,Wunderground v.1.15,2013-10-23 02:45:00,
2013-10-22 22:50:00,55.3,52.7,29.98,WNW,298,0.0,4.0,91,0.00,,,0.00,0,Wunderground v.1.15,2013-10-23 02:50:00,
2013-10-22 23:00:00,55.2,52.6,29.98,WNW,298,0.0,4.0,91,0.00,,,0.00,0,Wunderground v.1.15,2013-10-23 03:00:00,
2013-10-22 23:05:00,55.0,52.4,29.98,WNW,298,0.0,4.0,91,0.00,,,0.00,0,Wunderground v.1.15,2013-10-23 03:05:00,
2013-10-22 23:10:00,54.9,52.3,29.98,WNW,298,0.0,4.0,91,0.00,,,0.00,0,Wunderground v.1.15,2013-10-23 03:10:00,
2013-10-22 23:15:00,54.7,52.1,29.98,WNW,298,0.0,4.0,91,0.00,,,0.00,0,Wunderground v.1.15,2013-10-23 03:15:00,
2013-10-22 23:20:00,54.6,52.3,29.99,WNW,298,0.0,4.0,92,0.00,,,0.00,0,Wunderground v.1.15,2013-10-23 03:20:00,
2013-10-22 23:25:00,54.6,52.3,29.98,WNW,298,0.0,4.0,92,0.00,,,0.00,0,Wunderground v.1.15,2013-10-23 03:25:00,
2013-10-22 23:35:00,54.4,52.4,29.99,WNW,298,0.0,4.0,93,0.00,,,0.00,0,Wunderground v.1.15,2013-10-23 03:35:00,
2013-10-22 23:40:00,54.4,52.4,29.99,WNW,298,0.0,4.0,93,0.00,,,0.00,0,Wunderground v.1.15,2013-10-23 03:40:00,
2013-10-22 23:45:00,54.3,52.3,29.99,WNW,298,0.0,4.0,93,0.00,,,0.00,0,Wunderground v.1.15,2013-10-23 03:45:00,
2013-10-22 23:50:00,54.3,52.0,29.99,WNW,298,0.0,4.0,92,0.00,,,0.00,0,Wunderground v.1.15,2013-10-23 03:50:00,
2013-10-22 23:55:00,54.1,51.8,29.99,WNW,298,0.0,4.0,92,0.00,,,0.00,0,Wunderground v.1.15,2013-10-23 03:55:00,